Flight Track Log - Related Links

Times and Time Zones

All times are in EDT time to prevent confusion due to time zone crossing. See the UAL256 flight status page for this flight to view local times or setup timezone preferences in your user account.

Time Position Orientation Groundspeed Altitude Reporting Facility
EDT Latitude Longitude Course Direction KTS MPH feet Rate Location/Type
Sun 05:33:46 PM 37.4000 -121.9667 22° Northeast 166 191 1,600  Level Northern Cal TRACON
Sun 05:34:46 PM 37.4333 -121.9500 22° Northeast 232 267 3,800 2,700 Climbing Northern Cal TRACON
Sun 05:35:46 PM 37.4000 -121.8833 122° Southeast 242 278 7,000 3,100 Climbing Northern Cal TRACON
Sun 05:36:46 PM 37.3500 -121.8333 142° Southeast 256 295 10,000 2,467 Climbing Northern Cal TRACON
Sun 05:37:16 PM 37.3297 -121.8267 165° South 271 312 10,700 2,217 Climbing Oakland Center
Sun 05:38:18 PM 37.3297 -121.9175 270° West 290 334 13,400 2,146 Climbing Oakland Center
Sun 05:39:19 PM 37.4161 -121.9528 342° North 331 381 15,100 1,756 Climbing Oakland Center
Sun 05:40:21 PM 37.5175 -121.9542 359° North 368 423 17,000 2,098 Climbing Oakland Center
Sun 05:41:22 PM 37.6247 -121.9667 355° North 386 444 19,400 2,537 Climbing Oakland Center
Sun 05:42:24 PM 37.7250 -121.9406 12° North 385 443 22,200 1,951 Climbing Oakland Center
Sun 05:43:25 PM 37.7750 -121.8139 63° Northeast 415 478 23,400 1,317 Climbing Oakland Center
Sun 05:44:27 PM 37.8253 -121.6767 65° Northeast 429 494 24,900 1,561 Climbing Oakland Center
Sun 05:45:28 PM 37.8881 -121.5033 65° Northeast 451 519 26,600 1,512 Climbing Oakland Center
Sun 05:46:30 PM 37.9425 -121.3614 64° Northeast 458 527 28,000 1,415 Climbing Oakland Center
Sun 05:47:31 PM 37.9969 -121.2133 65° Northeast 465 535 29,500 1,561 Climbing Oakland Center
Sun 05:48:33 PM 38.0514 -121.0664 65° Northeast 464 534 31,200 1,610 Climbing Oakland Center
Sun 05:49:34 PM 38.0911 -120.9142 72° East 462 532 32,800 1,415 Climbing Oakland Center
Sun 05:50:36 PM 38.1194 -120.7575 77° East 459 528 34,100 1,463 Climbing Oakland Center
Sun 05:51:37 PM 38.1539 -120.5706 77° East 456 525 35,800 1,366 Climbing Oakland Center
Sun 05:52:39 PM 38.1817 -120.4161 77° East 451 519 36,900 585 Climbing Oakland Center
Sun 05:53:40 PM 38.2078 -120.2633 78° East 445 512 37,000 49 Climbing Oakland Center
Sun 05:54:42 PM 38.2369 -120.1094 76° East 448 516 37,000  Level Oakland Center
Sun 05:55:43 PM 38.2628 -119.9550 78° East 447 514 37,000  Level Oakland Center
Sun 05:56:45 PM 38.2897 -119.8003 77° East 448 516 37,000  Level Oakland Center
Sun 05:57:47 PM 38.3167 -119.6453 77° East 450 518 37,000  Level Oakland Center
Sun 05:58:48 PM 38.3439 -119.4886 77° East 452 520 37,000  Level Oakland Center
Sun 05:59:49 PM 38.3744 -119.3044 78° East 453 521 37,000  Level Oakland Center
Sun 06:00:51 PM 38.3994 -119.1492 78° East 451 519 37,000  Level Oakland Center
Sun 06:01:52 PM 38.4264 -118.9925 78° East 454 522 37,000  Level Oakland Center
Sun 06:02:54 PM 38.4514 -118.8350 78° East 454 522 37,000  Level Oakland Center
Sun 06:03:55 PM 38.4761 -118.6775 79° East 455 524 37,000  Level Oakland Center
Sun 06:04:57 PM 38.5019 -118.5214 78° East 453 521 37,000  Level Oakland Center
Sun 06:05:58 PM 38.5325 -118.3314 78° East 458 527 37,000  Level Oakland Center
Sun 06:07:00 PM 38.5575 -118.1750 78° East 454 522 37,000  Level Oakland Center
Sun 06:08:01 PM 38.5814 -118.0175 79° East 454 522 37,000  Level Oakland Center
Sun 06:09:03 PM 38.6058 -117.8581 79° East 455 524 37,000  Level Oakland Center
Sun 06:10:04 PM 38.6303 -117.7000 79° East 452 520 37,000  Level Oakland Center
Sun 06:11:06 PM 38.6550 -117.5386 79° East 457 526 37,000  Level Oakland Center
Sun 06:12:08 PM 38.6786 -117.3786 79° East 456 525 37,000  Level Oakland Center
Sun 06:12:46 PM 38.6925 -117.2817 80° East 457 526 37,000  Level Salt Lake Center
Sun 06:13:47 PM 38.7167 -117.1181 79° East 462 532 37,000  Level Salt Lake Center
Sun 06:14:11 PM 38.7269 -117.0544 78° East 462 532 37,000  Level Oakland Center
Sun 06:15:12 PM 38.7506 -116.8933 79° East 460 529 37,000  Level Oakland Center
Sun 06:15:50 PM 38.7689 -116.7633 80° East 458 527 37,000  Level Salt Lake Center
Sun 06:16:52 PM 38.7925 -116.6017 79° East 460 529 37,000  Level Salt Lake Center
Sun 06:17:15 PM 38.8017 -116.5381 80° East 460 529 37,000  Level Oakland Center
Sun 06:18:17 PM 38.8244 -116.3756 80° East 461 531 37,000  Level Oakland Center
Sun 06:18:55 PM 38.8381 -116.2769 80° East 463 533 37,000  Level Salt Lake Center
Sun 06:19:56 PM 38.8597 -116.1136 80° East 465 535 37,000  Level Salt Lake Center
Sun 06:20:57 PM 38.8825 -115.9506 80° East 465 535 37,000  Level Salt Lake Center
Sun 06:21:59 PM 38.9047 -115.7872 80° East 465 535 37,000  Level Salt Lake Center
Sun 06:23:00 PM 38.9278 -115.6228 80° East 466 536 37,000  Level Salt Lake Center
Sun 06:24:02 PM 38.9492 -115.4583 80° East 466 536 37,000  Level Salt Lake Center
Sun 06:25:03 PM 38.9739 -115.2772 80° East 469 540 37,000  Level Salt Lake Center
Sun 06:26:05 PM 38.9958 -115.1106 80° East 472 543 37,000  Level Salt Lake Center
Sun 06:27:06 PM 39.0172 -114.9472 80° East 466 536 37,000  Level Salt Lake Center
Sun 06:28:07 PM 39.0372 -114.7828 81° East 466 536 37,000  Level Salt Lake Center
Sun 06:29:09 PM 39.0586 -114.6192 80° East 466 536 37,000  Level Salt Lake Center
Sun 06:30:10 PM 39.0836 -114.4194 81° East 468 539 37,000  Level Salt Lake Center
Sun 06:31:12 PM 39.1039 -114.2533 81° East 470 541 37,000  Level Salt Lake Center
Sun 06:32:13 PM 39.1247 -114.0844 81° East 476 548 37,000  Level Salt Lake Center
Sun 06:33:15 PM 39.1442 -113.9161 81° East 475 547 37,000  Level Salt Lake Center
Sun 06:34:16 PM 39.1644 -113.7500 81° East 472 543 37,000  Level Salt Lake Center
Sun 06:35:17 PM 39.1831 -113.5833 82° East 471 542 37,000  Level Salt Lake Center
Sun 06:36:19 PM 39.2022 -113.4183 81° East 467 537 37,000  Level Salt Lake Center
Sun 06:37:20 PM 39.2211 -113.2528 82° East 467 537 37,000  Level Salt Lake Center
Sun 06:38:22 PM 39.2397 -113.0864 82° East 468 539 37,000  Level Salt Lake Center
Sun 06:39:23 PM 39.2622 -112.8847 82° East 472 543 37,000  Level Salt Lake Center
Sun 06:40:25 PM 39.2794 -112.7175 82° East 471 542 37,000  Level Salt Lake Center
Sun 06:41:26 PM 39.2975 -112.5586 82° East 472 543 37,000  Level Salt Lake Center
Sun 06:42:28 PM 39.3233 -112.3933 79° East 471 542 37,000  Level Salt Lake Center
Sun 06:43:29 PM 39.3556 -112.2333 75° East 465 535 37,000  Level Salt Lake Center
Sun 06:44:30 PM 39.3847 -112.0692 77° East 469 540 37,000  Level Salt Lake Center
Sun 06:45:32 PM 39.4206 -111.8747 77° East 468 539 37,000  Level Salt Lake Center
Sun 06:46:33 PM 39.4503 -111.7103 77° East 472 543 37,000  Level Salt Lake Center
Sun 06:47:35 PM 39.4800 -111.5458 77° East 472 543 37,000  Level Salt Lake Center
Sun 06:48:36 PM 39.5103 -111.3806 77° East 473 544 37,000  Level Salt Lake Center
Sun 06:49:37 PM 39.5381 -111.2156 78° East 474 545 37,000  Level Salt Lake Center
Sun 06:50:39 PM 39.5708 -111.0328 77° East 469 540 37,000  Level Salt Lake Center
Sun 06:51:40 PM 39.5989 -110.8739 77° East 473 544 37,000  Level Salt Lake Center
Sun 06:52:42 PM 39.6264 -110.7144 77° East 473 544 37,000  Level Salt Lake Center
Sun 06:53:43 PM 39.6569 -110.5281 78° East 473 544 37,000  Level Salt Lake Center
Sun 06:54:44 PM 39.6842 -110.3683 77° East 473 544 37,000  Level Salt Lake Center
Sun 06:55:46 PM 39.7164 -110.1825 77° East 473 544 37,000  Level Salt Lake Center
Sun 06:56:47 PM 39.7439 -110.0211 77° East 476 548 37,000  Level Salt Lake Center
Sun 06:57:49 PM 39.7697 -109.8592 78° East 477 549 37,000  Level Salt Lake Center
Sun 06:58:50 PM 39.7997 -109.6706 78° East 477 549 37,000  Level Salt Lake Center
Sun 06:59:51 PM 39.8256 -109.5100 78° East 474 545 37,000  Level Salt Lake Center
Sun 07:00:53 PM 39.8553 -109.3206 78° East 476 548 37,000  Level Salt Lake Center
Sun 07:02:01 PM 39.8847 -109.1317 78° East 472 543 37,000  Level Denver Center
Sun 07:02:56 PM 39.9067 -108.9978 78° East 475 547 37,000  Level Salt Lake Center
Sun 07:03:57 PM 39.9364 -108.8058 79° East 478 550 37,000 49 Level Salt Lake Center
Sun 07:04:58 PM 39.9611 -108.6408 79° East 479 551 37,100 49 Climbing Salt Lake Center
Sun 07:06:00 PM 39.9858 -108.4775 79° East 477 549 37,100 -49 Level Salt Lake Center
Sun 07:07:01 PM 40.0144 -108.2869 79° East 477 549 37,000 -49 Descending Salt Lake Center
Sun 07:08:03 PM 40.0386 -108.1247 79° East 476 548 37,000  Level Salt Lake Center
Sun 07:09:13 PM 40.0664 -107.9314 79° East 479 551 37,000 46 Level Denver Center
Sun 07:10:14 PM 40.1044 -107.7433 75° East 479 551 37,100  Climbing Denver Center
Sun 07:11:16 PM 40.1372 -107.5833 75° East 476 548 37,000 -48 Descending Denver Center
Sun 07:12:18 PM 40.1736 -107.3961 76° East 475 547 37,000  Level Denver Center
Sun 07:13:19 PM 40.2064 -107.2356 75° East 477 549 37,000  Level Denver Center
Sun 07:14:21 PM 40.2383 -107.0719 76° East 482 555 37,000  Level Denver Center
Sun 07:15:23 PM 40.2756 -106.8850 75° East 477 549 37,000 -629 Level Denver Center
Sun 07:16:25 PM 40.3094 -106.7094 76° East 476 548 35,700 -2,049 Descending Denver Center
Sun 07:17:26 PM 40.3428 -106.5383 76° East 481 554 32,800 -2,439 Descending Denver Center
Sun 07:18:28 PM 40.3747 -106.3714 76° East 480 552 30,700 -2,032 Descending Denver Center
Sun 07:19:30 PM 40.4100 -106.1850 76° East 471 542 28,600 -1,839 Descending Denver Center
Sun 07:20:32 PM 40.4394 -106.0225 77° East 460 529 26,900 -1,694 Descending Denver Center
Sun 07:21:34 PM 40.4239 -105.8622 97° East 444 511 25,100 -1,707 Descending Denver Center
Sun 07:22:35 PM 40.4000 -105.7028 101° East 440 506 23,400 -1,610 Descending Denver Center
Sun 07:23:37 PM 40.3761 -105.5514 102° East 423 487 21,800 -1,500 Descending Denver Center
Sun 07:24:39 PM 40.3411 -105.4050 107° East 403 464 20,300 -1,355 Descending Denver Center
Sun 07:25:41 PM 40.2756 -105.3033 130° Southeast 366 421 19,000 -1,390 Descending Denver Center
Sun 07:27:36 PM 40.1667 -105.1000 125° Southeast 332 382 16,200 -1,525 Descending Denver TRACON
Sun 07:28:42 PM 40.1000 -105.0000 131° Southeast 326 375 14,400 -1,333 Descending Denver TRACON
Sun 07:29:42 PM 40.0500 -104.9000 123° Southeast 326 375 13,400 -737 Descending Denver TRACON
Sun 07:30:36 PM 40.0167 -104.8167 118° Southeast 324 373 13,000 -650 Descending Denver TRACON
Sun 07:31:42 PM 39.9667 -104.7000 119° Southeast 326 375 12,100 -762 Descending Denver TRACON
Sun 07:32:42 PM 39.9667 -104.5833 90° East 283 326 11,400 -1,105 Descending Denver TRACON
Sun 07:33:36 PM 39.9667 -104.5000 90° East 263 303 10,000 -1,556 Descending Denver TRACON

Login

Don't have an account? Register now (free) for customized features, flight alerts, and more!